createdAt,value
2018-11-12T00:00:40.511Z,84.30
2018-11-12T00:03:07.998Z,84.46
2018-11-12T00:05:35.593Z,84.82
2018-11-12T00:08:03.255Z,84.93
2018-11-12T00:10:30.746Z,84.84
2018-11-12T00:12:58.175Z,85.37
2018-11-12T00:15:25.711Z,85.55
2018-11-12T00:17:53.230Z,85.30
2018-11-12T00:20:20.776Z,85.22
2018-11-12T00:22:48.239Z,85.45
2018-11-12T00:25:15.748Z,85.66
2018-11-12T00:27:43.459Z,85.80
2018-11-12T00:30:14.115Z,85.93
2018-11-12T00:32:42.371Z,86.10
2018-11-12T00:35:10.605Z,86.42
2018-11-12T00:37:38.311Z,86.37
2018-11-12T00:40:08.022Z,86.90
2018-11-12T00:42:35.672Z,87.04
2018-11-12T00:45:03.254Z,87.33
2018-11-12T00:47:30.786Z,87.13
2018-11-12T00:49:58.327Z,87.45
2018-11-12T00:52:25.916Z,87.79
2018-11-12T00:54:53.406Z,87.64
2018-11-12T00:57:20.926Z,87.71
2018-11-12T00:59:48.410Z,87.47
2018-11-12T01:02:16.062Z,87.18
2018-11-12T01:04:43.526Z,87.02
2018-11-12T01:07:11.066Z,87.11
2018-11-12T01:09:38.665Z,86.98
2018-11-12T01:12:06.570Z,86.44
2018-11-12T01:14:34.548Z,86.50
2018-11-12T01:17:02.104Z,86.09
2018-11-12T01:19:29.654Z,86.36
2018-11-12T01:21:57.102Z,86.27
2018-11-12T01:24:24.614Z,86.38
2018-11-12T01:26:52.546Z,86.77
2018-11-12T01:29:19.990Z,86.53
2018-11-12T01:31:47.578Z,86.52
2018-11-12T01:34:15.007Z,86.43
2018-11-12T01:36:42.517Z,87.00
2018-11-12T01:39:11.202Z,86.33
2018-11-12T01:41:39.083Z,86.62
2018-11-12T01:44:06.574Z,86.47
2018-11-12T01:46:34.186Z,85.62
2018-11-12T01:49:01.719Z,85.16
2018-11-12T01:51:29.151Z,84.89
2018-11-12T01:53:56.763Z,84.80
2018-11-12T01:56:25.213Z,84.77
2018-11-12T01:58:52.630Z,84.44
2018-11-12T02:01:20.272Z,84.32
2018-11-12T02:03:47.747Z,84.34
2018-11-12T02:06:15.170Z,84.38
2018-11-12T02:08:42.766Z,84.70
2018-11-12T02:11:10.283Z,84.49
2018-11-12T02:13:37.878Z,84.28
2018-11-12T02:16:07.291Z,84.63
2018-11-12T02:18:34.840Z,84.58
2018-11-12T02:21:02.546Z,84.22
2018-11-12T02:23:30.193Z,84.49
2018-11-12T02:25:57.630Z,84.15
2018-11-12T02:28:25.049Z,84.82
2018-11-12T02:30:52.598Z,84.27
2018-11-12T02:33:20.304Z,84.35
2018-11-12T02:35:47.631Z,84.48
2018-11-12T02:38:15.148Z,84.85
2018-11-12T02:40:42.691Z,84.80
2018-11-12T02:43:10.189Z,84.64
2018-11-12T02:45:37.760Z,84.76
2018-11-12T02:48:05.307Z,84.88
2018-11-12T02:50:32.858Z,85.06
2018-11-12T02:53:00.375Z,85.17
2018-11-12T02:55:27.873Z,85.58
2018-11-12T02:57:55.463Z,85.96
2018-11-12T03:00:23.679Z,86.24
2018-11-12T03:02:51.437Z,86.48
2018-11-12T03:05:18.912Z,86.60
2018-11-12T03:07:46.570Z,86.43
2018-11-12T03:10:16.463Z,86.55
2018-11-12T03:12:43.924Z,86.37
2018-11-12T03:15:12.506Z,85.90
2018-11-12T03:17:40.749Z,86.09
2018-11-12T03:20:10.686Z,85.49
2018-11-12T03:22:38.575Z,85.29
2018-11-12T03:25:07.276Z,85.49
2018-11-12T03:27:35.179Z,85.71
2018-11-12T03:30:03.017Z,85.63
2018-11-12T03:32:30.537Z,85.72
2018-11-12T03:34:57.989Z,86.04
2018-11-12T03:37:25.504Z,86.32
2018-11-12T03:39:53.069Z,86.41
2018-11-12T03:42:20.478Z,86.60
2018-11-12T03:44:48.031Z,86.38
2018-11-12T03:47:15.455Z,86.29
2018-11-12T03:49:42.933Z,86.17
2018-11-12T03:52:10.726Z,86.23
2018-11-12T03:54:38.270Z,86.05
2018-11-12T03:57:05.912Z,85.59
2018-11-12T03:59:33.633Z,85.76
2018-11-12T04:02:01.161Z,84.97
2018-11-12T04:04:28.565Z,84.88
2018-11-12T04:06:56.107Z,84.98
2018-11-12T04:09:23.661Z,84.52
2018-11-12T04:11:51.155Z,84.07
2018-11-12T04:14:18.649Z,84.13
2018-11-12T04:16:46.141Z,84.17
2018-11-12T04:19:13.646Z,84.27
2018-11-12T04:21:41.275Z,83.81
2018-11-12T04:24:08.683Z,83.37
2018-11-12T04:26:36.290Z,83.04
2018-11-12T04:29:03.861Z,83.02
2018-11-12T04:31:31.451Z,83.28
2018-11-12T04:33:59.275Z,83.21
2018-11-12T04:36:27.200Z,83.19
2018-11-12T04:38:55.388Z,83.27
2018-11-12T04:41:22.921Z,83.05
2018-11-12T04:43:50.779Z,82.96
2018-11-12T04:46:18.418Z,83.07
2018-11-12T04:48:45.961Z,83.51
2018-11-12T04:51:13.489Z,83.42
2018-11-12T04:53:41.418Z,83.25
2018-11-12T04:56:08.876Z,83.77
2018-11-12T04:58:36.419Z,83.62
2018-11-12T05:01:04.016Z,83.65
2018-11-12T05:03:31.691Z,84.18
2018-11-12T05:05:59.158Z,84.14
2018-11-12T05:08:26.612Z,84.04
2018-11-12T05:10:54.132Z,83.77
2018-11-12T05:13:21.745Z,83.96
2018-11-12T05:15:49.198Z,84.10
2018-11-12T05:18:16.653Z,83.98
2018-11-12T05:20:44.241Z,84.05
2018-11-12T05:23:11.792Z,83.91
2018-11-12T05:25:39.361Z,83.47
2018-11-12T05:28:06.969Z,83.80
2018-11-12T05:30:34.712Z,83.90
2018-11-12T05:33:02.140Z,84.23
2018-11-12T05:35:29.953Z,83.74
2018-11-12T05:37:57.741Z,83.99
2018-11-12T05:40:27.385Z,84.12
2018-11-12T05:42:54.953Z,84.26
2018-11-12T05:45:23.659Z,84.10
2018-11-12T05:47:51.244Z,84.07
2018-11-12T05:50:21.139Z,84.08
2018-11-12T05:52:50.007Z,84.19
2018-11-12T05:55:19.031Z,84.71
2018-11-12T05:57:46.915Z,84.30
2018-11-12T06:00:16.848Z,84.71
2018-11-12T06:02:44.289Z,84.12
2018-11-12T06:05:13.771Z,83.89
2018-11-12T06:07:41.701Z,83.76
2018-11-12T06:10:13.211Z,83.81
2018-11-12T06:12:41.153Z,83.60
2018-11-12T06:15:09.607Z,83.79
2018-11-12T06:17:37.190Z,83.62
2018-11-12T06:20:09.413Z,83.83
2018-11-12T06:22:36.987Z,83.54
2018-11-12T06:25:05.188Z,83.87
2018-11-12T06:27:32.636Z,83.69
2018-11-12T06:30:00.212Z,83.47
2018-11-12T06:32:27.686Z,83.52
2018-11-12T06:34:55.209Z,83.64
2018-11-12T06:37:22.800Z,83.66
2018-11-12T06:39:50.308Z,83.47
2018-11-12T06:42:17.848Z,83.59
2018-11-12T06:44:45.293Z,83.33
2018-11-12T06:47:13.010Z,83.35
2018-11-12T06:49:40.420Z,83.33
2018-11-12T06:52:08.051Z,83.12
2018-11-12T06:54:35.587Z,83.26
2018-11-12T06:57:03.241Z,83.04
2018-11-12T06:59:30.738Z,83.13
2018-11-12T07:01:58.266Z,83.14
2018-11-12T07:04:25.827Z,83.15
2018-11-12T07:06:53.434Z,82.93
2018-11-12T07:09:20.886Z,83.16
2018-11-12T07:11:48.758Z,83.12
2018-11-12T07:14:16.298Z,83.06
2018-11-12T07:16:44.010Z,82.74
2018-11-12T07:19:11.558Z,82.30
2018-11-12T07:21:39.508Z,81.84
2018-11-12T07:24:07.091Z,81.57
2018-11-12T07:26:34.534Z,81.23
2018-11-12T07:29:02.330Z,81.12
2018-11-12T07:31:30.100Z,80.52
2018-11-12T07:33:57.514Z,80.04
2018-11-12T07:36:25.061Z,79.58
2018-11-12T07:38:52.614Z,79.58
2018-11-12T07:41:20.082Z,78.86
2018-11-12T07:43:47.613Z,78.83
2018-11-12T07:46:15.158Z,78.54
2018-11-12T07:48:42.702Z,78.44
2018-11-12T07:51:10.390Z,78.26
2018-11-12T07:53:37.816Z,78.41
2018-11-12T07:56:05.306Z,78.07
2018-11-12T07:58:32.795Z,77.94
2018-11-12T08:01:00.278Z,77.45
2018-11-12T08:03:27.747Z,77.13
2018-11-12T08:05:55.288Z,77.01
2018-11-12T08:08:22.869Z,76.60
2018-11-12T08:10:50.423Z,76.43
2018-11-12T08:13:17.951Z,76.14
2018-11-12T08:15:45.466Z,75.79
2018-11-12T08:18:12.996Z,75.69
2018-11-12T08:20:40.630Z,75.46
2018-11-12T08:23:08.254Z,75.74
2018-11-12T08:25:35.708Z,75.66
2018-11-12T08:28:03.238Z,75.45
2018-11-12T08:30:30.768Z,75.48
2018-11-12T08:32:59.349Z,75.25
2018-11-12T08:35:27.096Z,75.29
2018-11-12T08:37:54.919Z,75.19
2018-11-12T08:40:24.121Z,74.81
2018-11-12T08:42:51.584Z,74.81
2018-11-12T08:45:19.058Z,74.75
2018-11-12T08:47:48.026Z,74.73
2018-11-12T08:50:17.327Z,74.26
2018-11-12T08:52:46.001Z,74.54
2018-11-12T08:55:15.295Z,74.44
2018-11-12T08:57:44.568Z,74.58
2018-11-12T09:00:12.538Z,74.88
2018-11-12T09:02:40.346Z,73.91
2018-11-12T09:05:09.722Z,73.97
2018-11-12T09:07:37.781Z,73.89
2018-11-12T09:10:08.659Z,73.85
2018-11-12T09:12:36.175Z,73.86
2018-11-12T09:15:04.122Z,74.24
2018-11-12T09:17:31.547Z,73.95
2018-11-12T09:19:58.981Z,74.22
2018-11-12T09:22:26.403Z,74.19
2018-11-12T09:24:53.818Z,74.31
2018-11-12T09:27:21.359Z,74.12
2018-11-12T09:29:48.847Z,73.50
2018-11-12T09:32:16.349Z,73.07
2018-11-12T09:34:43.946Z,72.63
2018-11-12T09:37:11.486Z,72.27
2018-11-12T09:39:38.851Z,71.95
2018-11-12T09:42:06.419Z,71.68
2018-11-12T09:44:33.942Z,71.37
2018-11-12T09:47:01.422Z,70.95
2018-11-12T09:49:28.935Z,70.98
2018-11-12T09:51:56.418Z,70.54
2018-11-12T09:54:23.954Z,69.40
2018-11-12T09:56:51.382Z,69.56
2018-11-12T09:59:18.925Z,69.04
2018-11-12T10:01:46.935Z,68.83
2018-11-12T10:04:14.572Z,68.62
2018-11-12T10:06:42.980Z,67.87
2018-11-12T10:09:13.763Z,67.70
2018-11-12T10:11:40.306Z,67.43
2018-11-12T10:14:08.731Z,67.62
2018-11-12T10:16:38.292Z,67.91
2018-11-12T10:19:01.901Z,68.03
2018-11-12T10:21:29.321Z,68.00
2018-11-12T10:23:56.781Z,67.90
2018-11-12T10:26:24.297Z,68.25
2018-11-12T10:28:51.824Z,68.19
2018-11-12T10:31:19.285Z,68.34
2018-11-12T10:33:46.729Z,68.77
2018-11-12T10:36:14.159Z,68.69
2018-11-12T10:38:41.719Z,68.78
2018-11-12T10:41:09.234Z,68.58
2018-11-12T10:43:36.748Z,68.68
2018-11-12T10:46:05.124Z,68.70
2018-11-12T10:48:32.701Z,68.11
2018-11-12T10:51:05.035Z,67.87
2018-11-12T10:53:27.629Z,68.04
2018-11-12T10:55:55.395Z,67.96
2018-11-12T10:58:22.796Z,68.39
2018-11-12T11:00:56.033Z,68.41
2018-11-12T11:03:31.011Z,68.37
2018-11-12T11:05:59.488Z,68.03
2018-11-12T11:08:27.232Z,67.63
2018-11-12T11:10:54.734Z,67.98
2018-11-12T11:13:22.272Z,67.47
2018-11-12T11:15:49.887Z,67.80
2018-11-12T11:18:17.305Z,67.92
2018-11-12T11:20:44.869Z,67.35
2018-11-12T11:23:12.413Z,66.88
2018-11-12T11:25:39.922Z,66.70
2018-11-12T11:28:07.484Z,66.27
2018-11-12T11:30:35.053Z,66.64
2018-11-12T11:33:02.606Z,66.30
2018-11-12T11:35:30.121Z,65.89
2018-11-12T11:37:57.583Z,65.87
2018-11-12T11:40:25.976Z,65.92
2018-11-12T11:42:53.624Z,65.66
2018-11-12T11:45:21.510Z,65.50
2018-11-12T11:47:49.921Z,65.43
2018-11-12T11:50:18.792Z,65.32
2018-11-12T11:52:46.205Z,64.92
2018-11-12T11:55:15.253Z,64.83
2018-11-12T11:57:43.194Z,64.87
2018-11-12T12:00:17.891Z,64.57
2018-11-12T12:02:46.369Z,63.85
2018-11-12T12:05:14.921Z,63.26
2018-11-12T12:07:42.419Z,62.81
2018-11-12T12:10:10.998Z,62.37
2018-11-12T12:12:38.447Z,62.38
2018-11-12T12:15:07.668Z,61.95
2018-11-12T12:17:35.321Z,61.66
2018-11-12T12:20:03.088Z,62.33
2018-11-12T12:22:30.543Z,62.03
2018-11-12T12:24:58.248Z,61.48
2018-11-12T12:27:25.920Z,61.42
2018-11-12T12:29:53.473Z,61.41
2018-11-12T12:32:21.163Z,61.34
2018-11-12T12:34:48.651Z,60.79
2018-11-12T12:37:16.301Z,60.09
2018-11-12T12:39:43.855Z,58.68
2018-11-12T12:42:11.599Z,57.98
2018-11-12T12:44:39.163Z,57.90
2018-11-12T12:47:06.772Z,58.22
2018-11-12T12:49:34.821Z,58.17
2018-11-12T12:52:02.564Z,58.36
2018-11-12T12:54:30.087Z,58.11
2018-11-12T12:56:57.537Z,58.04
2018-11-12T12:59:25.053Z,57.61
2018-11-12T13:01:52.800Z,57.46
2018-11-12T13:04:20.553Z,57.74
2018-11-12T13:06:48.001Z,57.76
2018-11-12T13:09:15.525Z,57.80
2018-11-12T13:11:43.055Z,58.18
2018-11-12T13:14:10.519Z,59.02
2018-11-12T13:16:38.103Z,59.25
2018-11-12T13:19:05.561Z,59.80
2018-11-12T13:21:33.286Z,60.24
2018-11-12T13:24:00.794Z,60.68
2018-11-12T13:26:28.234Z,60.03
2018-11-12T13:28:55.722Z,59.45
2018-11-12T13:31:23.286Z,58.11
2018-11-12T13:33:50.689Z,57.52
2018-11-12T13:36:18.170Z,55.22
2018-11-12T13:38:45.779Z,56.12
2018-11-12T13:41:13.263Z,56.37
2018-11-12T13:43:40.653Z,56.49
2018-11-12T13:46:08.275Z,56.27
2018-11-12T13:48:35.893Z,56.36
2018-11-12T13:51:03.452Z,56.42
2018-11-12T13:53:31.168Z,56.70
2018-11-12T13:55:58.672Z,56.68
2018-11-12T13:58:26.153Z,57.44
2018-11-12T14:00:53.759Z,57.85
2018-11-12T14:03:21.245Z,58.15
2018-11-12T14:05:48.736Z,58.62
2018-11-12T14:08:16.216Z,59.18
2018-11-12T14:10:43.673Z,59.58
2018-11-12T14:13:11.085Z,59.79
2018-11-12T14:15:38.613Z,60.07
2018-11-12T14:18:06.189Z,59.01
2018-11-12T14:20:33.734Z,58.76
2018-11-12T14:23:01.128Z,58.78
2018-11-12T14:25:28.567Z,58.28
2018-11-12T14:27:56.820Z,56.83
2018-11-12T14:30:26.605Z,57.62
2018-11-12T14:32:55.008Z,57.12
2018-11-12T14:35:22.776Z,57.96
2018-11-12T14:37:50.246Z,57.66
2018-11-12T14:40:18.566Z,57.18
2018-11-12T14:42:46.226Z,57.16
2018-11-12T14:45:16.093Z,57.74
2018-11-12T14:47:43.988Z,58.05
2018-11-12T14:50:11.523Z,58.53
2018-11-12T14:52:39.011Z,58.81
2018-11-12T14:55:07.925Z,60.19
2018-11-12T14:57:35.310Z,59.68
2018-11-12T15:00:02.915Z,60.08
2018-11-12T15:02:30.344Z,60.63
2018-11-12T15:04:58.025Z,60.90
2018-11-12T15:07:25.620Z,60.46
2018-11-12T15:09:53.067Z,60.35
2018-11-12T15:12:20.727Z,60.71
2018-11-12T15:14:48.594Z,60.20
2018-11-12T15:17:15.866Z,60.95
2018-11-12T15:19:43.284Z,61.27
2018-11-12T15:22:10.839Z,61.48
2018-11-12T15:24:38.311Z,61.76
2018-11-12T15:27:06.470Z,62.18
2018-11-12T15:29:34.365Z,62.39
2018-11-12T15:32:02.067Z,62.85
2018-11-12T15:34:29.695Z,62.96
2018-11-12T15:36:57.482Z,63.32
2018-11-12T15:39:24.981Z,63.47
2018-11-12T15:41:52.476Z,63.95
2018-11-12T15:44:19.927Z,64.34
2018-11-12T15:46:47.459Z,64.00
2018-11-12T15:49:14.936Z,63.91
2018-11-12T15:51:42.567Z,63.32
2018-11-12T15:54:09.983Z,63.31
2018-11-12T15:56:37.559Z,63.74
2018-11-12T15:59:05.402Z,62.61
2018-11-12T16:01:32.842Z,62.57
2018-11-12T16:04:00.377Z,63.06
2018-11-12T16:06:27.936Z,62.82
2018-11-12T16:08:55.593Z,63.08
2018-11-12T16:11:23.163Z,63.06
2018-11-12T16:13:50.827Z,62.95
2018-11-12T16:16:18.688Z,62.84
2018-11-12T16:18:46.184Z,63.23
2018-11-12T16:21:13.668Z,63.34
2018-11-12T16:23:41.173Z,63.12
2018-11-12T16:26:08.809Z,63.17
2018-11-12T16:28:36.327Z,62.87
2018-11-12T16:31:03.831Z,62.79
2018-11-12T16:33:31.359Z,63.23
2018-11-12T16:35:58.875Z,63.84
2018-11-12T16:38:26.321Z,63.87
2018-11-12T16:40:53.995Z,64.22
2018-11-12T16:43:21.579Z,64.45
2018-11-12T16:45:49.125Z,63.61
2018-11-12T16:48:16.578Z,63.77
2018-11-12T16:50:44.141Z,63.50
2018-11-12T16:53:11.699Z,66.09
2018-11-12T16:55:39.253Z,68.14
2018-11-12T16:58:06.847Z,69.63
2018-11-12T17:00:34.277Z,71.16
2018-11-12T17:03:01.929Z,72.55
2018-11-12T17:05:29.627Z,73.48
2018-11-12T17:07:57.245Z,75.11
2018-11-12T17:10:25.629Z,76.28
2018-11-12T17:12:53.237Z,76.61
2018-11-12T17:15:20.719Z,77.80
2018-11-12T17:17:48.895Z,78.29
2018-11-12T17:20:17.834Z,79.00
2018-11-12T17:22:45.381Z,79.33
2018-11-12T17:25:13.874Z,80.19
2018-11-12T17:27:41.721Z,80.96
2018-11-12T17:30:12.473Z,81.45
2018-11-12T17:32:40.627Z,81.99
2018-11-12T17:35:10.022Z,81.78
2018-11-12T17:37:37.891Z,82.13
2018-11-12T17:40:08.873Z,82.59
2018-11-12T17:42:36.442Z,82.99
2018-11-12T17:45:04.942Z,83.28
2018-11-12T17:47:32.465Z,83.44
2018-11-12T17:50:00.094Z,83.71
2018-11-12T17:52:27.615Z,84.11
2018-11-12T17:54:55.159Z,84.40
2018-11-12T17:57:22.627Z,84.95
2018-11-12T17:59:50.241Z,85.28
2018-11-12T18:02:17.846Z,85.26
2018-11-12T18:04:45.458Z,85.48
2018-11-12T18:07:12.963Z,85.33
2018-11-12T18:09:40.404Z,85.21
2018-11-12T18:12:07.939Z,85.30
2018-11-12T18:14:35.483Z,85.45
2018-11-12T18:17:03.146Z,85.33
2018-11-12T18:19:30.759Z,85.65
2018-11-12T18:21:58.179Z,85.83
2018-11-12T18:24:25.706Z,85.87
2018-11-12T18:26:53.281Z,85.55
2018-11-12T18:29:20.737Z,86.08
2018-11-12T18:31:48.661Z,86.37
2018-11-12T18:34:16.180Z,86.14
2018-11-12T18:36:43.644Z,86.48
2018-11-12T18:39:11.057Z,87.08
2018-11-12T18:41:38.638Z,87.38
2018-11-12T18:44:06.119Z,87.35
2018-11-12T18:46:33.862Z,87.35
2018-11-12T18:49:01.426Z,87.04
2018-11-12T18:51:28.890Z,87.05
2018-11-12T18:53:56.421Z,87.58
2018-11-12T18:56:23.902Z,87.40
2018-11-12T18:58:51.431Z,87.31
2018-11-12T19:01:18.907Z,87.24
2018-11-12T19:03:46.443Z,87.08
2018-11-12T19:06:13.965Z,87.02
2018-11-12T19:08:41.404Z,86.67
2018-11-12T19:11:08.895Z,86.51
2018-11-12T19:13:36.325Z,86.70
2018-11-12T19:16:03.809Z,86.71
2018-11-12T19:18:31.366Z,86.99
2018-11-12T19:20:58.819Z,86.82
2018-11-12T19:23:26.288Z,86.79
2018-11-12T19:25:53.862Z,87.20
2018-11-12T19:28:21.341Z,86.94
2018-11-12T19:30:48.926Z,87.32
2018-11-12T19:33:16.343Z,87.33
2018-11-12T19:35:43.831Z,87.09
2018-11-12T19:38:11.255Z,87.48
2018-11-12T19:40:38.764Z,87.72
2018-11-12T19:43:06.269Z,87.78
2018-11-12T19:45:33.751Z,87.52
2018-11-12T19:48:01.495Z,87.73
2018-11-12T19:50:29.806Z,87.78
2018-11-12T19:52:58.069Z,87.87
2018-11-12T19:55:25.591Z,87.95
2018-11-12T19:57:53.022Z,87.88
2018-11-12T20:00:22.329Z,87.71
2018-11-12T20:02:52.017Z,87.58
2018-11-12T20:05:19.464Z,87.67
2018-11-12T20:07:46.954Z,87.44
2018-11-12T20:10:15.978Z,86.92
2018-11-12T20:12:43.677Z,87.17
2018-11-12T20:15:12.457Z,87.07
2018-11-12T20:17:40.782Z,86.94
2018-11-12T20:20:11.485Z,86.99
2018-11-12T20:22:38.940Z,86.92
2018-11-12T20:25:07.332Z,87.08
2018-11-12T20:27:34.760Z,86.72
2018-11-12T20:30:02.265Z,86.83
2018-11-12T20:32:29.911Z,86.79
2018-11-12T20:34:57.381Z,86.80
2018-11-12T20:37:24.891Z,86.56
2018-11-12T20:39:52.394Z,86.98
2018-11-12T20:42:19.922Z,87.02
2018-11-12T20:44:47.344Z,87.04
2018-11-12T20:47:14.861Z,87.11
2018-11-12T20:49:42.402Z,87.14
2018-11-12T20:52:09.896Z,86.93
2018-11-12T20:54:37.489Z,86.54
2018-11-12T20:57:05.091Z,86.28
2018-11-12T20:59:32.725Z,86.41
2018-11-12T21:02:00.367Z,86.00
2018-11-12T21:04:27.938Z,85.52
2018-11-12T21:06:55.388Z,85.48
2018-11-12T21:09:22.947Z,85.78
2018-11-12T21:11:50.534Z,85.81
2018-11-12T21:14:18.103Z,85.95
2018-11-12T21:16:45.647Z,86.05
2018-11-12T21:19:13.141Z,85.96
2018-11-12T21:21:40.683Z,85.94
2018-11-12T21:24:08.237Z,86.07
2018-11-12T21:26:35.727Z,85.92
2018-11-12T21:29:03.294Z,86.34
2018-11-12T21:31:30.861Z,86.07
2018-11-12T21:33:58.317Z,86.41
2018-11-12T21:36:25.763Z,86.38
2018-11-12T21:38:53.255Z,86.47
2018-11-12T21:41:20.952Z,86.51
2018-11-12T21:43:48.458Z,86.64
2018-11-12T21:46:16.003Z,86.44
2018-11-12T21:48:43.497Z,86.38
2018-11-12T21:51:10.943Z,86.48
2018-11-12T21:53:38.469Z,86.78
2018-11-12T21:56:05.985Z,86.36
2018-11-12T21:58:33.476Z,86.07
2018-11-12T22:01:01.009Z,86.36
2018-11-12T22:03:28.459Z,86.32
2018-11-12T22:05:55.922Z,86.03
2018-11-12T22:08:23.546Z,86.08
2018-11-12T22:10:50.994Z,86.11
2018-11-12T22:13:18.511Z,85.77
2018-11-12T22:15:46.031Z,85.95
2018-11-12T22:18:13.467Z,85.44
2018-11-12T22:20:40.923Z,85.62
2018-11-12T22:23:08.393Z,86.01
2018-11-12T22:25:35.927Z,86.14
2018-11-12T22:28:03.486Z,86.05
2018-11-12T22:30:30.931Z,86.26
2018-11-12T22:32:58.365Z,86.71
2018-11-12T22:35:25.818Z,86.79
2018-11-12T22:37:53.286Z,86.72
2018-11-12T22:45:24.966Z,87.66
2018-11-12T22:47:52.739Z,87.49
2018-11-12T22:50:20.323Z,88.02
2018-11-12T22:52:47.907Z,88.21
2018-11-12T22:55:16.557Z,88.51
2018-11-12T22:57:44.040Z,88.61
2018-11-12T23:00:24.667Z,88.39
2018-11-12T23:02:52.333Z,88.30
2018-11-12T23:05:20.309Z,88.29
2018-11-12T23:07:49.828Z,88.61
2018-11-12T23:10:19.299Z,89.09
2018-11-12T23:12:46.973Z,89.17
2018-11-12T23:15:14.993Z,88.96
2018-11-12T23:17:42.414Z,89.29
2018-11-12T23:20:13.191Z,89.31
2018-11-12T23:22:41.558Z,89.17
2018-11-12T23:25:09.512Z,89.61
2018-11-12T23:27:36.992Z,89.75
2018-11-12T23:30:05.571Z,90.02
2018-11-12T23:32:33.023Z,89.70
2018-11-12T23:35:00.426Z,89.80
2018-11-12T23:37:27.957Z,90.13
2018-11-12T23:39:55.411Z,90.16
2018-11-12T23:42:23.093Z,90.28
2018-11-12T23:44:50.653Z,90.13
2018-11-12T23:47:18.235Z,90.12
2018-11-12T23:49:45.675Z,90.18
2018-11-12T23:52:13.191Z,90.17
2018-11-12T23:54:40.657Z,90.50
2018-11-12T23:57:08.171Z,90.35
2018-11-12T23:59:35.987Z,90.38
